Dobrodošli na spletni strani vremenske postaje Senovo. Vse informacije so informativnega značaja, saj vremenska postaja ni del državne mreže meteoroloških postaj. AKTUALNIH OBVESTIL NI.


Sneg/Led Od: 23-02-2018 00:00 Do: 23:59 Opozorilo za: Sneg/Led Stopnja: Rumena info button

Pogled proti Armezu več informacij Pogled proti Armezu


Lisca več informacij Lisca


Radar strel več informacij blitzortung!


opozorilo za sneg/led več informacij rain snow radar


Obiščite še:

Template documentation
and downloads

And another site



Weather Underground, zgodovina - Tekstovno

Dnevni povzetek za December 23, 2017 Enote:  Angleško    Metrično   Obe
« Predhodni Dan
Naslednji Dan »
Dnevni Tedenski Mesečni Letni Po meri
  Višja: Nižja: Povprečje:
Temperatura: TemperatureC °F -3.6 °F -1 °F
Točka rosišča: DewpointC °F -4.7 °F -2.6 °F
Vlažnost: Humidity % 0 % 86 %
Hitrost vetra: WindSpeedKMH mph 0.0 mph 0.4 mph
Sunki vetra: WindSpeedGustKMH mph - -
Veter:- - SSW
Zračni tlak: PressurehPa in 0.0 in -
Padavine: 0.0 in    
Historical Graphs
 
 
Tabelarni podarki za December 23, 2017
Čas Temperatura Točka rosišča Zračni tlak Veter Hitrost vetra Sunki vetra Vlažnost Intenziteta padavin (urna)
TemperatureC °F DewpointC °F PressurehPa in Calm     Humidity % HourlyPrecipMM in
00:04 -2.2 °F -3.6 °F 1029.0 in Calm     90 % 0.0 in
00:09 -2.3 °F -3.7 °F 1029.0 in Calm     90 % 0.0 in
00:10 -2.3 °F -3.7 °F 1029.0 in Calm     90 % 0.0 in
00:16 -2.3 °F -3.7 °F 1029.0 in Calm     90 % 0.0 in
00:21 -2.4 °F -3.8 °F 1029.0 in Calm     90 % 0.0 in
00:29 -2.5 °F -3.9 °F 1029.0 in Calm     90 % 0.0 in
00:34 -2.5 °F -3.9 °F 1029.0 in Calm     90 % 0.0 in
00:35 -2.5 °F -3.9 °F 1029.0 in Calm     90 % 0.0 in
00:40 -2.6 °F -4.0 °F 1029.0 in Calm     90 % 0.0 in
00:43 -2.6 °F -4.0 °F 1029.0 in Calm     90 % 0.0 in
00:48 -2.7 °F -4.1 °F 1029.0 in Calm     90 % 0.0 in
00:49 -2.7 °F -4.1 °F 1029.0 in Calm     90 % 0.0 in
00:54 -2.7 °F -4.1 °F 1029.0 in Calm     90 % 0.0 in
00:55 -2.7 °F -4.1 °F 1029.0 in Calm     90 % 0.0 in
01:00 -2.7 °F -4.1 °F 1029.0 in Calm     90 % 0.0 in
01:01 -2.7 °F -4.1 °F 1029.0 in Calm     90 % 0.0 in
01:06 -2.8 °F -4.2 °F 1029.0 in Calm     90 % 0.0 in
01:09 -2.8 °F -4.2 °F 1029.0 in Calm     90 % 0.0 in
01:12 -2.8 °F -4.2 °F 1029.0 in Calm     90 % 0.0 in
01:18 -2.8 °F -4.2 °F 1029.0 in Calm     90 % 0.0 in
01:19 -2.8 °F -4.2 °F 1029.0 in Calm     90 % 0.0 in
01:24 -2.8 °F -4.2 °F 1029.0 in Calm     90 % 0.0 in
01:26 -2.8 °F -4.2 °F 1029.0 in Calm     90 % 0.0 in
01:31 -2.9 °F -4.3 °F 1029.0 in Calm     90 % 0.0 in
01:32 -2.9 °F -4.3 °F 1029.0 in Calm     90 % 0.0 in
01:33 -2.9 °F -4.3 °F 1029.0 in Calm     90 % 0.0 in
01:38 -3.0 °F -4.3 °F 1029.0 in Calm     91 % 0.0 in
01:44 -3.0 °F -4.3 °F 1029.0 in Calm     91 % 0.0 in
01:49 -3.0 °F -4.3 °F 1029.0 in Calm     91 % 0.0 in
01:51 -3.0 °F -4.3 °F 1029.0 in Calm     91 % 0.0 in
01:56 -3.0 °F -4.3 °F 1029.0 in Calm     91 % 0.0 in
01:58 -3.0 °F -4.3 °F 1029.0 in Calm     91 % 0.0 in
02:03 -3.1 °F -4.4 °F 1029.0 in Calm     91 % 0.0 in
02:05 0.0 °F -4.3 °F 0.0 in Calm     0 % 0.0 in
02:10 -3.1 °F -4.4 °F 1029.0 in Calm     91 % 0.0 in
02:13 -3.1 °F -4.4 °F 1029.0 in Calm     91 % 0.0 in
02:18 -3.0 °F -4.3 °F 1029.0 in WSW 1.0 mph 4.3 mph 91 % 0.0 in
02:23 -3.0 °F -4.3 °F 1029.0 in WSW 1.0 mph 4.3 mph 91 % 0.0 in
02:27 -3.0 °F -4.3 °F 1029.0 in Calm     91 % 0.0 in
02:29 -3.0 °F -4.3 °F 1030.0 in Calm     91 % 0.0 in
02:33 0.0 °F -4.3 °F 0.0 in Calm     0 % 0.0 in
02:38 -3.0 °F -4.3 °F 1030.0 in Calm     91 % 0.0 in
02:43 -3.0 °F -4.3 °F 1030.0 in Calm     91 % 0.0 in
02:45 -3.0 °F -4.3 °F 1029.0 in Calm     91 % 0.0 in
02:50 -3.1 °F -4.4 °F 1029.0 in Calm     91 % 0.0 in
02:55 -3.1 °F -4.4 °F 1029.0 in Calm     91 % 0.0 in
02:58 -3.2 °F -4.4 °F 1029.0 in Calm     91 % 0.0 in
03:03 -3.2 °F -4.4 °F 1029.0 in Calm     91 % 0.0 in
03:05 -3.2 °F -4.4 °F 1029.0 in Calm     91 % 0.0 in
03:09 -3.2 °F -4.4 °F 1029.0 in Calm     91 % 0.0 in
03:13 -3.3 °F -4.4 °F 1029.0 in Calm     92 % 0.0 in
03:17 -3.3 °F -4.4 °F 1029.0 in Calm     92 % 0.0 in
03:19 -3.3 °F -4.4 °F 1029.0 in Calm     92 % 0.0 in
03:24 -3.3 °F -4.4 °F 1029.0 in Calm     92 % 0.0 in
03:29 -3.4 °F -4.5 °F 1029.0 in Calm     92 % 0.0 in
03:34 -3.4 °F -4.5 °F 1029.0 in Calm     92 % 0.0 in
03:35 -3.5 °F -4.6 °F 1029.0 in Calm     92 % 0.0 in
03:40 -3.5 °F -4.6 °F 1029.0 in Calm     92 % 0.0 in
03:44 -3.5 °F -4.6 °F 1029.0 in Calm     92 % 0.0 in
03:45 -3.5 °F -4.6 °F 1029.0 in Calm     92 % 0.0 in
03:49 -3.5 °F -4.6 °F 1029.0 in Calm     92 % 0.0 in
03:54 -3.6 °F -4.7 °F 1029.0 in Calm     92 % 0.0 in
03:55 -3.6 °F -4.7 °F 1029.0 in Calm     92 % 0.0 in
04:00 -3.6 °F -4.7 °F 1028.0 in Calm     92 % 0.0 in
04:02 -3.6 °F -4.7 °F 1028.0 in Calm     92 % 0.0 in
04:07 -3.6 °F -4.7 °F 1028.0 in SW 0.6 mph 3.5 mph 92 % 0.0 in
04:08 -3.6 °F -4.7 °F 1028.0 in SW 0.6 mph 3.5 mph 92 % 0.0 in
04:10 -3.6 °F -4.7 °F 1028.0 in SW 0.6 mph 3.5 mph 92 % 0.0 in
04:14 -3.6 °F -4.7 °F 1028.0 in SW 0.6 mph 3.5 mph 92 % 0.0 in
04:19 -3.6 °F -4.7 °F 1028.0 in Calm     92 % 0.0 in
04:20 -3.6 °F -4.7 °F 1028.0 in Calm     92 % 0.0 in
04:25 -3.6 °F -4.7 °F 1028.0 in Calm     92 % 0.0 in
04:31 -3.5 °F -4.6 °F 1028.0 in Calm     92 % 0.0 in
04:33 -3.5 °F -4.6 °F 1028.0 in Calm     92 % 0.0 in
04:38 -3.4 °F -4.5 °F 1028.0 in Calm     92 % 0.0 in
04:39 -3.4 °F -4.5 °F 1028.0 in Calm     92 % 0.0 in
04:44 -3.4 °F -4.5 °F 1028.0 in Calm     92 % 0.0 in
04:49 -3.3 °F -4.4 °F 1028.0 in Calm     92 % 0.0 in
04:54 -3.3 °F -4.4 °F 1028.0 in Calm     92 % 0.0 in
04:55 -3.3 °F -4.4 °F 1028.0 in Calm     92 % 0.0 in
05:00 -3.3 °F -4.4 °F 1028.0 in Calm     92 % 0.0 in
05:05 -3.2 °F -4.2 °F 1028.0 in Calm     93 % 0.0 in
05:09 -3.1 °F -4.1 °F 1028.0 in Calm     93 % 0.0 in
05:10 -3.1 °F -4.1 °F 1028.0 in Calm     93 % 0.0 in
05:15 -3.1 °F -4.1 °F 1028.0 in Calm     93 % 0.0 in
05:20 -3.0 °F -4.0 °F 1028.0 in Calm     93 % 0.0 in
05:22 -3.0 °F -4.0 °F 1028.0 in Calm     93 % 0.0 in
05:25 -2.9 °F -4.0 °F 1028.0 in Calm     92 % 0.0 in
05:30 -2.9 °F -3.9 °F 1028.0 in Calm     93 % 0.0 in
05:33 -2.8 °F -3.8 °F 1028.0 in Calm     93 % 0.0 in
05:35 -2.8 °F -3.8 °F 1028.0 in Calm     93 % 0.0 in
05:39 -2.8 °F -3.8 °F 1028.0 in Calm     93 % 0.0 in
05:44 -2.8 °F -3.8 °F 1028.0 in Calm     93 % 0.0 in
05:47 -2.8 °F -3.8 °F 1028.0 in Calm     93 % 0.0 in
05:52 -2.7 °F -3.7 °F 1028.0 in Calm     93 % 0.0 in
05:56 -2.7 °F -3.7 °F 1028.0 in Calm     93 % 0.0 in
05:58 -2.6 °F -3.6 °F 1028.0 in Calm     93 % 0.0 in
06:03 -2.6 °F -3.6 °F 1029.0 in Calm     93 % 0.0 in
06:04 -2.6 °F -3.6 °F 1029.0 in Calm     93 % 0.0 in
06:09 -2.6 °F -3.6 °F 1029.0 in Calm     93 % 0.0 in
06:14 -2.5 °F -3.5 °F 1029.0 in Calm     93 % 0.0 in
06:17 -2.5 °F -3.5 °F 1029.0 in Calm     93 % 0.0 in
06:20 -2.5 °F -3.5 °F 1029.0 in Calm     93 % 0.0 in
06:25 -2.5 °F -3.5 °F 1029.0 in Calm     93 % 0.0 in
06:29 -2.5 °F -3.3 °F 1029.0 in Calm     94 % 0.0 in
06:34 -2.5 °F -3.3 °F 1029.0 in Calm     94 % 0.0 in
06:40 -2.5 °F -3.3 °F 1029.0 in Calm     94 % 0.0 in
06:43 -2.5 °F -3.3 °F 1029.0 in Calm     94 % 0.0 in
06:46 -2.5 °F -3.3 °F 1029.0 in Calm     94 % 0.0 in
06:51 -2.5 °F -3.3 °F 1029.0 in Calm     94 % 0.0 in
06:53 -2.5 °F -3.3 °F 1029.0 in Calm     94 % 0.0 in
06:58 -2.5 °F -3.3 °F 1029.0 in Calm     94 % 0.0 in
06:59 -2.5 °F -3.3 °F 1029.0 in Calm     94 % 0.0 in
07:04 -2.5 °F -3.3 °F 1029.0 in Calm     94 % 0.0 in
07:05 -2.6 °F -3.4 °F 1029.0 in Calm     94 % 0.0 in
07:10 -2.6 °F -3.4 °F 1029.0 in Calm     94 % 0.0 in
07:15 -2.6 °F -3.4 °F 1029.0 in SW 0.8 mph 4.7 mph 94 % 0.0 in
07:18 -2.7 °F -3.6 °F 1029.0 in SW 1.4 mph 4.7 mph 94 % 0.0 in
07:23 -2.7 °F -3.6 °F 1029.0 in SW 2.6 mph 4.7 mph 94 % 0.0 in
07:28 -2.8 °F -3.6 °F 1029.0 in SW 0.8 mph 3.5 mph 94 % 0.0 in
07:30 -2.8 °F -3.6 °F 1029.0 in SW 0.5 mph 2.6 mph 94 % 0.0 in
07:35 -2.8 °F -3.6 °F 1029.0 in Calm     94 % 0.0 in
07:37 -2.8 °F -3.6 °F 1029.0 in Calm     94 % 0.0 in
07:42 -2.8 °F -3.6 °F 1029.0 in Calm     94 % 0.0 in
07:44 -2.8 °F -3.6 °F 1029.0 in Calm     94 % 0.0 in
07:45 -2.8 °F -3.6 °F 1029.0 in Calm     94 % 0.0 in
07:50 -2.8 °F -3.6 °F 1029.0 in Calm     94 % 0.0 in
07:53 -2.8 °F -3.6 °F 1029.0 in Calm     94 % 0.0 in
07:58 -2.8 °F -3.6 °F 1028.0 in Calm     94 % 0.0 in
07:59 -2.8 °F -3.6 °F 1028.0 in Calm     94 % 0.0 in
08:00 -2.8 °F -3.6 °F 1028.0 in Calm     94 % 0.0 in
08:05 -2.7 °F -3.6 °F 1028.0 in Calm     94 % 0.0 in
08:06 -2.7 °F -3.6 °F 1028.0 in Calm     94 % 0.0 in
08:11 -2.7 °F -3.6 °F 1028.0 in Calm     94 % 0.0 in
08:14 -2.7 °F -3.6 °F 1029.0 in Calm     94 % 0.0 in
08:15 -2.7 °F -3.6 °F 1029.0 in Calm     94 % 0.0 in
08:20 0.0 °F -3.5 °F 0.0 in Calm     0 % 0.0 in
08:26 -2.7 °F -3.6 °F 1029.0 in Calm     94 % 0.0 in
08:30 -2.7 °F -3.6 °F 1029.0 in Calm     94 % 0.0 in
08:35 -2.7 °F -3.6 °F 1029.0 in Calm     94 % 0.0 in
08:40 -2.7 °F -3.6 °F 1029.0 in ENE 0.2 mph 2.1 mph 94 % 0.0 in
08:41 -2.7 °F -3.6 °F 1029.0 in ENE 0.2 mph 2.1 mph 94 % 0.0 in
08:46 -2.6 °F -3.4 °F 1029.0 in ENE 1.3 mph 4.3 mph 94 % 0.0 in
08:47 -2.6 °F -3.4 °F 1029.0 in East 1.4 mph 4.3 mph 94 % 0.0 in
08:52 -2.5 °F -3.3 °F 1029.0 in East 2.1 mph 4.3 mph 94 % 0.0 in
08:54 -2.6 °F -3.4 °F 1029.0 in East 2.1 mph 4.3 mph 94 % 0.0 in
08:59 -2.6 °F -3.3 °F 1029.0 in ESE 0.5 mph 2.6 mph 95 % 0.0 in
09:00 -2.6 °F -3.3 °F 1029.0 in ESE 0.5 mph 2.6 mph 95 % 0.0 in
09:04 -2.6 °F -3.3 °F 1029.0 in Calm     95 % 0.0 in
09:09 -2.6 °F -3.3 °F 1029.0 in Calm     95 % 0.0 in
09:14 -2.6 °F -3.3 °F 1029.0 in Calm     95 % 0.0 in
09:15 -2.6 °F -3.3 °F 1029.0 in Calm     95 % 0.0 in
09:18 -2.6 °F -3.3 °F 1029.0 in Calm     95 % 0.0 in
09:23 -2.6 °F -3.3 °F 1029.0 in Calm     95 % 0.0 in
09:25 -2.6 °F -3.3 °F 1029.0 in Calm     95 % 0.0 in
09:30 -2.4 °F -3.1 °F 1029.0 in Calm     95 % 0.0 in
09:35 -2.4 °F -3.1 °F 1029.0 in Calm     95 % 0.0 in
09:36 -2.4 °F -3.1 °F 1029.0 in Calm     95 % 0.0 in
09:41 -2.3 °F -3.0 °F 1029.0 in Calm     95 % 0.0 in
09:46 -2.3 °F -3.0 °F 1029.0 in Calm     95 % 0.0 in
09:48 -2.3 °F -3.0 °F 1029.0 in Calm     95 % 0.0 in
09:52 -2.3 °F -3.0 °F 1029.0 in Calm     95 % 0.0 in
09:55 -2.2 °F -2.9 °F 1029.0 in Calm     95 % 0.0 in
10:00 -2.2 °F -2.9 °F 1029.0 in Calm     95 % 0.0 in
10:04 -2.2 °F -2.9 °F 1029.0 in Calm     95 % 0.0 in
10:09 -2.2 °F -2.9 °F 1029.0 in Calm     95 % 0.0 in
10:14 -2.2 °F -2.9 °F 1029.0 in Calm     95 % 0.0 in
10:15 -2.2 °F -2.9 °F 1029.0 in Calm     95 % 0.0 in
10:17 -2.2 °F -2.9 °F 1029.0 in Calm     95 % 0.0 in
10:22 -1.7 °F -2.4 °F 1029.0 in Calm     95 % 0.0 in
10:25 -1.7 °F -2.4 °F 1029.0 in Calm     95 % 0.0 in
10:30 -1.5 °F -2.2 °F 1029.0 in Calm     95 % 0.0 in
10:33 -1.5 °F -2.2 °F 1029.0 in Calm     95 % 0.0 in
10:37 -1.3 °F -2.0 °F 1029.0 in Calm     95 % 0.0 in
10:38 -1.3 °F -2.0 °F 1029.0 in Calm     95 % 0.0 in
10:44 0.0 °F -1.9 °F 0.0 in Calm     0 % 0.0 in
10:46 0.0 °F -1.9 °F 1029.0 in Calm     0 % 0.0 in
10:51 -0.9 °F -1.6 °F 1029.0 in Calm     95 % 0.0 in
10:52 -0.9 °F -1.6 °F 1029.0 in Calm     95 % 0.0 in
10:53 -0.8 °F -1.5 °F 1029.0 in Calm     95 % 0.0 in
10:58 -0.7 °F -1.4 °F 1029.0 in Calm     95 % 0.0 in
11:03 -0.5 °F -1.1 °F 1028.0 in SSE 2.3 mph 4.3 mph 96 % 0.0 in
11:04 -0.5 °F -1.1 °F 1028.0 in SSE 2.4 mph 4.3 mph 96 % 0.0 in
11:08 -0.5 °F -1.1 °F 1028.0 in SSE 1.9 mph 4.3 mph 96 % 0.0 in
11:09 -0.5 °F -1.1 °F 1028.0 in SSE 1.8 mph 4.3 mph 96 % 0.0 in
11:14 -0.5 °F -1.1 °F 1028.0 in SSE 0.6 mph 3.2 mph 96 % 0.0 in
11:19 -0.2 °F -0.8 °F 1028.0 in SSE 0.5 mph 4.0 mph 96 % 0.0 in
11:22 -0.2 °F -0.8 °F 1028.0 in SSE 0.6 mph 4.0 mph 96 % 0.0 in
13:37 0.0 °F 1.4 °F 0.0 in Calm     0 % 0.3 in
13:44 0.0 °F 1.6 °F 0.0 in Calm     0 % 0.3 in
13:46 0.0 °F 1.6 °F 1027.0 in SSW 3.1 mph 4.7 mph 0 % 0.3 in
13:51 5.4 °F 1.9 °F 1027.0 in SSE 3.7 mph 5.0 mph 78 % 0.3 in
13:52 5.4 °F 1.9 °F 1027.0 in South 3.2 mph 5.0 mph 78 % 0.3 in
13:57 5.5 °F 1.9 °F 1027.0 in SW 3.4 mph 5.5 mph 78 % 0.3 in
13:58 5.5 °F 1.9 °F 1027.0 in SW 3.4 mph 5.5 mph 78 % 0.3 in
14:03 5.5 °F 2.2 °F 1027.0 in SW 3.4 mph 5.5 mph 79 % 0.3 in
14:08 5.6 °F 2.2 °F 1027.0 in SW 2.3 mph 4.7 mph 79 % 0.3 in
14:09 5.6 °F 2.2 °F 1027.0 in SW 2.1 mph 4.7 mph 79 % 0.3 in
14:14 5.7 °F 2.5 °F 1026.0 in SSW 0.5 mph 3.2 mph 80 % 0.0 in
14:16 5.8 °F 2.6 °F 1026.0 in SSW 0.2 mph 2.6 mph 80 % 0.0 in
14:21 5.8 °F 2.6 °F 1026.0 in SSW 0.6 mph 3.2 mph 80 % 0.0 in
14:22 5.8 °F 2.6 °F 1026.0 in SSW 0.6 mph 3.2 mph 80 % 0.0 in
14:25 5.9 °F 2.7 °F 1026.0 in South 1.3 mph 5.0 mph 80 % 0.0 in
14:29 5.8 °F 2.8 °F 1026.0 in South 2.1 mph 5.5 mph 81 % 0.0 in
14:30 5.9 °F 2.9 °F 1026.0 in South 2.4 mph 5.5 mph 81 % 0.0 in
14:35 6.0 °F 2.8 °F 1026.0 in SSW 3.4 mph 5.8 mph 80 % 0.0 in
14:37 6.0 °F 2.8 °F 1026.0 in South 4.0 mph 6.4 mph 80 % 0.0 in
14:42 6.1 °F 3.1 °F 1026.0 in South 4.7 mph 6.4 mph 81 % 0.0 in
14:43 6.1 °F 3.1 °F 1026.0 in South 4.7 mph 6.4 mph 81 % 0.0 in
14:46 6.2 °F 3.2 °F 1027.0 in South 4.7 mph 6.4 mph 81 % 0.0 in
14:48 6.2 °F 3.2 °F 1027.0 in South 4.5 mph 6.4 mph 81 % 0.0 in
14:53 6.3 °F 3.3 °F 1027.0 in SSW 3.9 mph 5.8 mph 81 % 0.0 in
14:58 6.0 °F 3.0 °F 1027.0 in SSW 3.2 mph 5.8 mph 81 % 0.0 in
15:00 6.0 °F 3.0 °F 1027.0 in SSW 3.1 mph 5.8 mph 81 % 0.0 in
15:05 5.6 °F 2.4 °F 1027.0 in SSW 3.4 mph 5.8 mph 80 % 0.0 in
15:06 5.6 °F 2.4 °F 1027.0 in SSW 3.4 mph 5.8 mph 80 % 0.0 in
15:11 5.3 °F 2.1 °F 1027.0 in SSW 3.2 mph 5.0 mph 80 % 0.0 in
15:12 5.2 °F 2.1 °F 1027.0 in SW 3.4 mph 5.5 mph 80 % 0.0 in
15:16 4.9 °F 1.7 °F 1027.0 in WSW 3.5 mph 5.5 mph 80 % 0.0 in
15:18 4.9 °F 1.7 °F 1027.0 in WSW 3.5 mph 5.5 mph 80 % 0.0 in
15:19 4.9 °F 1.7 °F 1027.0 in WSW 3.5 mph 5.5 mph 80 % 0.0 in
15:24 4.4 °F 1.1 °F 1027.0 in West 1.0 mph 2.3 mph 79 % 0.0 in
15:30 0.0 °F 1.0 °F 0.0 in North 0.2 mph   0 % 0.0 in
15:31 4.1 °F 0.8 °F 1027.0 in Calm     79 % 0.0 in
15:32 4.0 °F 0.7 °F 1027.0 in Calm     79 % 0.0 in
15:37 3.8 °F 0.5 °F 1027.0 in SW 0.5 mph 2.1 mph 79 % 0.0 in
15:42 3.6 °F 0.3 °F 1027.0 in SW 0.5 mph 2.1 mph 79 % 0.0 in
15:43 3.6 °F 0.3 °F 1027.0 in SW 0.5 mph 2.1 mph 79 % 0.0 in
15:48 3.3 °F 0.0 °F 1027.0 in Calm     79 % 0.0 in
15:49 3.2 °F -0.1 °F 1027.0 in Calm   3.2 mph 79 % 0.0 in
15:54 3.0 °F -0.3 °F 1027.0 in NW 1.6 mph 5.0 mph 79 % 0.0 in
15:55 3.0 °F -0.3 °F 1027.0 in NW 1.8 mph 5.0 mph 79 % 0.0 in
16:00 2.8 °F -0.3 °F 1026.0 in NW 1.6 mph 4.3 mph 80 % 0.0 in
16:05 2.6 °F -0.5 °F 1026.0 in North 0.2 mph   80 % 0.0 in
16:06 2.6 °F -0.5 °F 1026.0 in North 0.2 mph   80 % 0.0 in
16:11 2.5 °F -0.6 °F 1026.0 in Calm     80 % 0.0 in
16:14 2.4 °F -0.7 °F 1027.0 in Calm     80 % 0.0 in
16:19 2.4 °F -0.7 °F 1027.0 in Calm     80 % 0.0 in
16:22 2.2 °F -0.9 °F 1027.0 in Calm     80 % 0.0 in
16:27 2.1 °F -1.0 °F 1027.0 in Calm     80 % 0.0 in
16:28 2.1 °F -1.0 °F 1027.0 in Calm     80 % 0.0 in
16:33 2.0 °F -1.1 °F 1026.0 in Calm     80 % 0.0 in
16:34 1.9 °F -1.0 °F 1026.0 in Calm     81 % 0.0 in
16:39 1.8 °F -1.1 °F 1026.0 in Calm     81 % 0.0 in
16:42 1.7 °F -1.2 °F 1026.0 in Calm     81 % 0.0 in
16:43 1.7 °F -1.2 °F 1026.0 in Calm     81 % 0.0 in
16:48 1.6 °F -1.3 °F 1026.0 in Calm     81 % 0.0 in
16:53 1.4 °F -1.5 °F 1026.0 in Calm     81 % 0.0 in
16:54 1.4 °F -1.5 °F 1026.0 in Calm     81 % 0.0 in
16:55 1.4 °F -1.5 °F 1026.0 in Calm     81 % 0.0 in
17:00 1.3 °F -1.4 °F 1027.0 in Calm     82 % 0.0 in
17:05 1.2 °F -1.6 °F 1027.0 in Calm     82 % 0.0 in
17:09 1.1 °F -1.6 °F 1027.0 in Calm     82 % 0.0 in
17:13 1.0 °F -1.7 °F 1026.0 in Calm     82 % 0.0 in
17:14 1.0 °F -1.7 °F 1026.0 in Calm     82 % 0.0 in
17:22 0.8 °F -1.8 °F 1026.0 in Calm     83 % 0.0 in
17:23 0.8 °F -1.8 °F 1026.0 in Calm     83 % 0.0 in
17:29 0.0 °F -1.8 °F 0.0 in Calm     0 % 0.0 in
17:33 0.0 °F -1.8 °F 1027.0 in Calm     0 % 0.0 in
17:38 0.0 °F -1.8 °F 0.0 in Calm     0 % 0.0 in
17:41 0.4 °F -2.2 °F 0.0 in Calm     83 % 0.0 in
17:42 0.4 °F -2.2 °F 0.0 in Calm     83 % 0.0 in
17:47 0.3 °F -2.2 °F 1027.0 in Calm     83 % 0.0 in
17:48 0.3 °F -2.2 °F 1027.0 in Calm     83 % 0.0 in
17:53 0.3 °F -2.2 °F 1027.0 in Calm     83 % 0.0 in
17:54 0.3 °F -2.2 °F 1027.0 in Calm     83 % 0.0 in
17:59 0.2 °F -2.2 °F 1026.0 in Calm     84 % 0.0 in
18:02 0.1 °F -2.3 °F 1026.0 in Calm     84 % 0.0 in
18:04 0.1 °F -2.3 °F 1026.0 in Calm     84 % 0.0 in
18:08 0.0 °F -2.4 °F 1026.0 in Calm     84 % 0.0 in
18:13 0.0 °F -2.4 °F 1026.0 in Calm     84 % 0.0 in
18:18 -0.1 °F -2.5 °F 1027.0 in Calm   4.3 mph 84 % 0.0 in
18:19 -0.1 °F -2.5 °F 1027.0 in Calm   4.3 mph 84 % 0.0 in
18:23 -0.2 °F -2.6 °F 1027.0 in Calm   4.3 mph 84 % 0.0 in
18:29 -0.3 °F -2.7 °F 1026.0 in South 0.5 mph 2.1 mph 84 % 0.0 in
18:34 -0.4 °F -2.6 °F 1026.0 in South 0.5 mph 2.1 mph 85 % 0.0 in
18:37 -0.4 °F -2.6 °F 1026.0 in South 0.6 mph 2.1 mph 85 % 0.0 in
18:42 -0.5 °F -2.7 °F 1026.0 in Calm     85 % 0.0 in
18:47 -0.5 °F -2.7 °F 1026.0 in Calm     85 % 0.0 in
18:48 -0.5 °F -2.7 °F 1026.0 in Calm     85 % 0.0 in
18:53 -0.6 °F -2.8 °F 1026.0 in Calm     85 % 0.0 in
18:54 -0.6 °F -2.8 °F 1026.0 in Calm     85 % 0.0 in
18:59 -0.6 °F -2.8 °F 1026.0 in NNW 0.6 mph 1.8 mph 85 % 0.0 in
19:04 -0.7 °F -2.9 °F 1026.0 in NNW 0.5 mph 1.8 mph 85 % 0.0 in
19:08 -0.7 °F -2.8 °F 1026.0 in NNW 0.5 mph 1.8 mph 86 % 0.0 in
19:10 -0.8 °F -2.8 °F 1026.0 in NNW 0.3 mph 1.8 mph 86 % 0.0 in
19:14 -0.8 °F -2.8 °F 1027.0 in Calm     86 % 0.0 in
19:16 -0.8 °F -2.8 °F 1027.0 in Calm     86 % 0.0 in
19:21 -0.9 °F -2.9 °F 1027.0 in Calm     86 % 0.0 in
19:23 -0.9 °F -2.9 °F 1027.0 in Calm     86 % 0.0 in
19:28 -0.9 °F -2.9 °F 1026.0 in North 0.2 mph   86 % 0.0 in
19:31 -0.9 °F -2.9 °F 1026.0 in North 0.5 mph   86 % 0.0 in
19:36 -0.9 °F -2.9 °F 1026.0 in North 1.0 mph   86 % 0.0 in
19:41 -0.9 °F -2.9 °F 1026.0 in North 0.8 mph   86 % 0.0 in
19:42 -0.9 °F -2.8 °F 1026.0 in North 0.3 mph   87 % 0.0 in
19:43 -0.9 °F -2.8 °F 1026.0 in North 0.3 mph   87 % 0.0 in
19:48 -0.9 °F -2.8 °F 1027.0 in Calm     87 % 0.0 in
19:49 -0.9 °F -2.8 °F 1027.0 in Calm     87 % 0.0 in
19:54 -1.0 °F -2.9 °F 1027.0 in Calm     87 % 0.0 in
19:59 -1.0 °F -2.9 °F 1027.0 in Calm     87 % 0.0 in
20:00 -1.0 °F -2.9 °F 1027.0 in Calm     87 % 0.0 in
20:05 -1.0 °F -2.9 °F 1027.0 in Calm     87 % 0.0 in
20:06 -1.0 °F -2.9 °F 1027.0 in Calm     87 % 0.0 in
20:10 -1.0 °F -2.7 °F 1027.0 in Calm     88 % 0.0 in
20:12 -1.0 °F -2.7 °F 1027.0 in Calm     88 % 0.0 in
20:17 -1.0 °F -2.7 °F 1027.0 in Calm     88 % 0.0 in
20:19 -1.1 °F -2.8 °F 1027.0 in Calm     88 % 0.0 in
20:21 -1.1 °F -2.8 °F 1027.0 in Calm     88 % 0.0 in
20:26 -1.1 °F -2.8 °F 1027.0 in Calm     88 % 0.0 in
20:28 -1.1 °F -2.8 °F 1027.0 in Calm     88 % 0.0 in
20:33 -1.2 °F -2.9 °F 1027.0 in Calm     88 % 0.0 in
20:36 -1.2 °F -2.9 °F 1027.0 in Calm     88 % 0.0 in
20:37 -1.3 °F -3.1 °F 1027.0 in Calm     88 % 0.0 in
20:42 -1.3 °F -3.1 °F 1027.0 in Calm     88 % 0.0 in
20:44 -1.3 °F -3.1 °F 1027.0 in Calm     88 % 0.0 in
20:48 -1.3 °F -3.1 °F 1027.0 in Calm     88 % 0.0 in
20:50 -1.3 °F -3.1 °F 1027.0 in Calm     88 % 0.0 in
20:54 -1.3 °F -3.1 °F 1027.0 in Calm     88 % 0.0 in
20:56 -1.3 °F -3.1 °F 1027.0 in Calm     88 % 0.0 in
21:01 -1.3 °F -2.9 °F 1027.0 in Calm     89 % 0.0 in
21:03 -1.3 °F -2.9 °F 1027.0 in Calm     89 % 0.0 in
21:08 -1.4 °F -3.0 °F 1027.0 in Calm     89 % 0.0 in
21:13 -1.4 °F -3.0 °F 1027.0 in Calm     89 % 0.0 in
21:14 -1.4 °F -3.0 °F 1027.0 in Calm     89 % 0.0 in
21:19 -1.4 °F -3.0 °F 1027.0 in Calm     89 % 0.0 in
21:24 -1.5 °F -3.1 °F 1027.0 in Calm     89 % 0.0 in
21:25 -1.5 °F -3.1 °F 1027.0 in Calm     89 % 0.0 in
21:30 -1.5 °F -3.1 °F 1027.0 in Calm     89 % 0.0 in
21:34 -1.6 °F -3.2 °F 1027.0 in Calm     89 % 0.0 in
21:37 -1.6 °F -3.2 °F 1027.0 in Calm     89 % 0.0 in
21:42 -1.6 °F -3.2 °F 1027.0 in Calm     89 % 0.0 in
21:44 -1.6 °F -3.2 °F 1027.0 in Calm     89 % 0.0 in
21:49 -1.6 °F -3.2 °F 1027.0 in Calm     89 % 0.0 in
21:50 -1.6 °F -3.2 °F 1027.0 in Calm     89 % 0.0 in
21:55 -1.6 °F -3.2 °F 1027.0 in Calm     89 % 0.0 in
21:58 -1.6 °F -3.2 °F 1027.0 in Calm     89 % 0.0 in
22:03 -1.6 °F -3.2 °F 1027.0 in Calm     89 % 0.0 in
22:06 -1.6 °F -3.2 °F 1027.0 in Calm     89 % 0.0 in
22:11 -1.8 °F -3.4 °F 1027.0 in Calm     89 % 0.0 in
22:12 -1.8 °F -3.4 °F 1027.0 in Calm     89 % 0.0 in
22:17 -1.9 °F -3.4 °F 1027.0 in Calm     89 % 0.0 in
22:22 0.0 °F -3.5 °F 1027.0 in Calm     0 % 0.0 in
22:27 -1.9 °F -3.3 °F 1027.0 in Calm     90 % 0.0 in
22:29 -1.9 °F -3.3 °F 1027.0 in Calm     90 % 0.0 in
22:30 -1.9 °F -3.3 °F 1027.0 in Calm     90 % 0.0 in
22:35 -1.9 °F -3.3 °F 1027.0 in Calm     90 % 0.0 in
22:38 -1.9 °F -3.3 °F 1027.0 in Calm     90 % 0.0 in
22:43 -1.9 °F -3.3 °F 1027.0 in NW 0.3 mph 4.0 mph 90 % 0.0 in
22:46 -1.9 °F -3.3 °F 1027.0 in NW 0.5 mph 4.0 mph 90 % 0.0 in
22:50 -1.9 °F -3.3 °F 1027.0 in NW 0.5 mph 4.0 mph 90 % 0.0 in
22:54 -1.9 °F -3.3 °F 1027.0 in Calm     90 % 0.0 in
22:56 -1.8 °F -3.2 °F 1027.0 in Calm     90 % 0.0 in
22:59 -1.8 °F -3.2 °F 1027.0 in Calm   3.2 mph 90 % 0.0 in
23:04 -1.8 °F -3.2 °F 1027.0 in NW 0.6 mph 3.5 mph 90 % 0.0 in
23:05 -1.8 °F -3.2 °F 1027.0 in NW 0.6 mph 3.5 mph 90 % 0.0 in
23:07 -1.7 °F -3.1 °F 1027.0 in NW 1.3 mph 3.5 mph 90 % 0.0 in
23:10 -1.7 °F -3.1 °F 1027.0 in NW 1.1 mph 3.5 mph 90 % 0.0 in
23:15 -1.7 °F -3.1 °F 1027.0 in North 0.5 mph   90 % 0.0 in
23:20 -1.6 °F -3.0 °F 1027.0 in Calm     90 % 0.0 in
23:24 -1.6 °F -3.0 °F 1027.0 in Calm     90 % 0.0 in
23:26 -1.5 °F -2.8 °F 1027.0 in SSW 0.3 mph 3.2 mph 91 % 0.0 in
23:31 -1.5 °F -2.8 °F 1026.0 in SSW 0.8 mph 3.2 mph 91 % 0.0 in
23:33 -1.5 °F -2.8 °F 1026.0 in SSW 0.6 mph 3.2 mph 91 % 0.0 in
23:38 -1.6 °F -2.9 °F 1026.0 in Calm   2.6 mph 91 % 0.0 in
23:39 -1.6 °F -2.9 °F 1026.0 in Calm   2.6 mph 91 % 0.0 in
23:44 -1.5 °F -2.8 °F 1027.0 in Calm   2.6 mph 91 % 0.0 in
23:49 -1.6 °F -2.9 °F 1027.0 in NNW 0.3 mph 1.8 mph 91 % 0.0 in
23:53 -1.6 °F -2.9 °F 1027.0 in NNW 0.3 mph 2.1 mph 91 % 0.0 in
23:55 -1.7 °F -3.0 °F 1027.0 in NNW 0.6 mph 2.1 mph 91 % 0.0 in
Vremenska postaja Senovo
Podatki zbrani iz Weather Underground - 3.25 mb

Script developed by  Jim McMurry - jmcmurry@mwt.net Adapted for the template by  Wim van der Kuil - Leuven-Template.eu

Vremenski podatki so objavljeni na:

European Weather Network

WeatherCloud

Weather Underground

AWEKAS

HAMweather, WeatherForYou, PWS Weather

MapView

Geostik

Slovenia weather network

Oprema, ki se uporablja:

Vremenski program
Cumulus

Vremenski server
Asus

Cumulus

Asus